createdAt,value
2019-01-30T00:02:08.964Z,1.40
2019-01-30T00:04:39.678Z,1.37
2019-01-30T00:07:10.289Z,1.41
2019-01-30T00:09:40.579Z,1.40
2019-01-30T00:12:11.861Z,1.42
2019-01-30T00:14:42.800Z,1.41
2019-01-30T00:17:13.319Z,1.39
2019-01-30T00:19:43.592Z,1.32
2019-01-30T00:22:13.867Z,1.25
2019-01-30T00:24:44.478Z,1.25
2019-01-30T00:27:14.958Z,1.27
2019-01-30T00:29:45.193Z,1.32
2019-01-30T00:32:15.477Z,1.34
2019-01-30T00:34:45.644Z,1.37
2019-01-30T00:37:16.524Z,1.38
2019-01-30T00:39:48.707Z,1.33
2019-01-30T00:42:19.801Z,1.37
2019-01-30T00:44:50.330Z,1.35
2019-01-30T00:47:20.526Z,1.38
2019-01-30T00:49:51.043Z,1.36
2019-01-30T00:52:21.350Z,1.35
2019-01-30T00:54:52.036Z,1.40
2019-01-30T00:57:22.611Z,1.46
2019-01-30T00:59:53.154Z,1.44
2019-01-30T01:02:23.511Z,1.52
2019-01-30T01:04:54.009Z,1.49
2019-01-30T01:07:24.320Z,1.47
2019-01-30T01:09:54.928Z,1.47
2019-01-30T01:12:25.181Z,1.48
2019-01-30T01:14:55.713Z,1.49
2019-01-30T01:17:26.358Z,1.48
2019-01-30T01:19:56.872Z,1.48
2019-01-30T01:22:27.090Z,1.53
2019-01-30T01:24:57.352Z,1.51
2019-01-30T01:27:27.573Z,1.52
2019-01-30T01:29:57.792Z,1.51
2019-01-30T01:32:28.396Z,1.53
2019-01-30T01:34:59.024Z,1.54
2019-01-30T01:37:29.273Z,1.53
2019-01-30T01:40:00.229Z,1.53
2019-01-30T01:42:30.497Z,1.58
2019-01-30T01:45:01.797Z,1.55
2019-01-30T01:47:32.380Z,1.56
2019-01-30T01:50:03.437Z,1.58
2019-01-30T01:52:33.966Z,1.56
2019-01-30T01:55:06.049Z,1.59
2019-01-30T01:57:36.969Z,1.54
2019-01-30T02:00:35.207Z,1.50
2019-01-30T02:03:00.527Z,1.51
2019-01-30T02:05:30.734Z,1.51
2019-01-30T02:08:01.617Z,1.51
2019-01-30T02:10:32.149Z,1.48
2019-01-30T02:13:02.810Z,1.51
2019-01-30T02:15:33.406Z,1.55
2019-01-30T02:18:03.938Z,1.59
2019-01-30T02:20:35.211Z,1.57
2019-01-30T02:23:05.806Z,1.58
2019-01-30T02:25:36.063Z,1.58
2019-01-30T02:28:06.340Z,1.53
2019-01-30T02:30:47.088Z,1.55
2019-01-30T02:33:09.061Z,1.59
2019-01-30T02:35:39.279Z,1.58
2019-01-30T02:38:09.813Z,1.62
2019-01-30T02:40:40.029Z,1.69
2019-01-30T02:43:10.295Z,1.66
2019-01-30T02:45:40.579Z,1.69
2019-01-30T02:48:11.219Z,1.64
2019-01-30T02:50:41.428Z,1.65
2019-01-30T02:53:12.956Z,1.62
2019-01-30T02:55:44.032Z,1.62
2019-01-30T02:58:15.794Z,1.64
2019-01-30T03:00:59.375Z,1.68
2019-01-30T03:03:26.516Z,1.67
2019-01-30T03:06:00.455Z,1.78
2019-01-30T03:08:31.241Z,1.77
2019-01-30T03:11:01.429Z,1.74
2019-01-30T03:13:31.636Z,1.67
2019-01-30T03:19:37.074Z,1.67
2019-01-30T03:22:07.603Z,1.59
2019-01-30T03:24:39.815Z,1.59
2019-01-30T03:27:18.086Z,1.54
2019-01-30T03:29:50.297Z,1.55
2019-01-30T03:32:20.604Z,1.51
2019-01-30T03:34:53.202Z,1.61
2019-01-30T03:37:25.633Z,1.72
2019-01-30T03:39:56.221Z,1.87
2019-01-30T03:42:26.549Z,1.96
2019-01-30T03:44:57.078Z,1.95
2019-01-30T03:47:28.661Z,1.89
2019-01-30T03:49:58.929Z,1.98
2019-01-30T03:52:29.103Z,1.95
2019-01-30T03:54:59.485Z,2.08
2019-01-30T03:57:29.664Z,2.28
2019-01-30T04:00:00.403Z,2.46
2019-01-30T04:02:30.742Z,2.53
2019-01-30T04:05:02.541Z,2.52
2019-01-30T04:07:33.928Z,2.61
2019-01-30T04:10:05.747Z,2.66
2019-01-30T04:12:36.002Z,2.55
2019-01-30T04:15:07.056Z,2.65
2019-01-30T04:17:37.542Z,2.88
2019-01-30T04:20:09.405Z,2.96
2019-01-30T04:22:39.884Z,2.89
2019-01-30T04:25:10.529Z,2.85
2019-01-30T04:27:40.708Z,2.80
2019-01-30T04:30:17.157Z,2.73
2019-01-30T04:32:48.191Z,2.61
2019-01-30T04:35:18.714Z,2.55
2019-01-30T04:37:49.260Z,2.64
2019-01-30T04:40:20.912Z,2.71
2019-01-30T04:42:51.853Z,2.78
2019-01-30T04:45:24.244Z,2.89
2019-01-30T04:47:54.580Z,2.95
2019-01-30T04:50:25.890Z,3.05
2019-01-30T04:52:56.890Z,3.21
2019-01-30T04:55:27.526Z,3.22
2019-01-30T04:57:58.348Z,3.19
2019-01-30T05:00:29.673Z,3.12
2019-01-30T05:02:59.851Z,3.20
2019-01-30T05:05:30.135Z,3.51
2019-01-30T05:08:00.398Z,3.62
2019-01-30T05:10:30.672Z,3.72
2019-01-30T05:13:00.948Z,3.77
2019-01-30T05:15:31.498Z,3.95
2019-01-30T05:18:02.015Z,3.96
2019-01-30T05:20:32.453Z,3.82
2019-01-30T05:23:02.671Z,3.70
2019-01-30T05:25:32.930Z,3.62
2019-01-30T05:28:03.515Z,3.58
2019-01-30T05:30:34.111Z,3.63
2019-01-30T05:33:04.702Z,3.70
2019-01-30T05:35:34.869Z,3.71
2019-01-30T05:38:05.445Z,3.73
2019-01-30T05:40:35.971Z,3.67
2019-01-30T05:43:06.190Z,3.79
2019-01-30T05:45:36.450Z,4.00
2019-01-30T05:48:06.729Z,4.04
2019-01-30T05:50:36.992Z,4.07
2019-01-30T05:53:07.415Z,4.03
2019-01-30T05:55:37.573Z,3.86
2019-01-30T05:58:08.452Z,3.86
2019-01-30T06:00:42.188Z,3.88
2019-01-30T06:03:12.975Z,3.81
2019-01-30T06:05:43.346Z,3.67
2019-01-30T06:08:13.628Z,3.52
2019-01-30T06:10:44.176Z,3.64
2019-01-30T06:13:15.011Z,3.52
2019-01-30T06:15:45.546Z,3.69
2019-01-30T06:18:16.873Z,3.69
2019-01-30T06:20:47.029Z,3.86
2019-01-30T06:23:17.539Z,3.82
2019-01-30T06:25:48.072Z,3.69
2019-01-30T06:28:18.275Z,3.68
2019-01-30T06:30:48.830Z,3.67
2019-01-30T06:33:19.029Z,3.84
2019-01-30T06:35:49.286Z,3.88
2019-01-30T06:38:20.202Z,3.72
2019-01-30T06:40:52.475Z,3.82
2019-01-30T06:43:23.709Z,3.84
2019-01-30T06:45:54.138Z,3.72
2019-01-30T06:48:24.678Z,3.68
2019-01-30T06:50:55.408Z,3.71
2019-01-30T06:53:25.998Z,3.65
2019-01-30T06:55:56.850Z,3.82
2019-01-30T06:58:27.567Z,3.83
2019-01-30T07:00:58.145Z,3.71
2019-01-30T07:03:28.550Z,3.69
2019-01-30T07:05:59.105Z,3.63
2019-01-30T07:08:29.732Z,3.61
2019-01-30T07:11:10.097Z,3.66
2019-01-30T07:13:32.219Z,3.54
2019-01-30T07:16:02.482Z,3.49
2019-01-30T07:18:33.398Z,3.43
2019-01-30T07:21:03.646Z,3.52
2019-01-30T07:23:33.942Z,3.50
2019-01-30T07:26:04.199Z,3.52
2019-01-30T07:28:35.470Z,3.53
2019-01-30T07:31:05.758Z,3.64
2019-01-30T07:33:36.770Z,3.63
2019-01-30T07:36:06.948Z,3.69
2019-01-30T07:38:37.795Z,3.71
2019-01-30T07:41:07.987Z,3.62
2019-01-30T07:43:38.589Z,3.66
2019-01-30T07:46:08.864Z,3.64
2019-01-30T07:48:39.125Z,3.73
2019-01-30T07:51:09.798Z,3.80
2019-01-30T07:53:40.417Z,3.84
2019-01-30T07:56:10.922Z,3.84
2019-01-30T07:58:41.760Z,3.86
2019-01-30T08:01:12.018Z,3.91
2019-01-30T08:03:42.920Z,3.91
2019-01-30T08:06:13.549Z,3.95
2019-01-30T08:08:43.877Z,4.04
2019-01-30T08:11:14.598Z,4.10
2019-01-30T08:13:44.858Z,4.16
2019-01-30T08:16:15.080Z,4.29
2019-01-30T08:18:45.357Z,4.24
2019-01-30T08:21:15.664Z,4.26
2019-01-30T08:23:45.845Z,4.29
2019-01-30T08:26:16.480Z,4.36
2019-01-30T08:28:46.993Z,4.35
2019-01-30T08:31:17.644Z,4.40
2019-01-30T08:33:47.867Z,4.36
2019-01-30T08:36:18.160Z,4.32
2019-01-30T08:38:49.800Z,4.49
2019-01-30T08:41:20.025Z,4.42
2019-01-30T08:43:50.777Z,4.36
2019-01-30T08:46:20.980Z,4.58
2019-01-30T08:48:51.251Z,4.70
2019-01-30T08:51:21.540Z,4.79
2019-01-30T08:53:51.793Z,4.73
2019-01-30T08:56:23.112Z,4.54
2019-01-30T08:58:53.277Z,4.42
2019-01-30T09:01:25.278Z,4.41
2019-01-30T09:03:56.588Z,4.48
2019-01-30T09:06:26.941Z,4.33
2019-01-30T09:08:57.510Z,4.25
2019-01-30T09:11:27.845Z,4.10
2019-01-30T09:13:58.079Z,4.05
2019-01-30T09:16:28.788Z,4.11
2019-01-30T09:19:00.442Z,4.21
2019-01-30T09:21:31.076Z,4.20
2019-01-30T09:24:01.612Z,4.23
2019-01-30T09:26:32.931Z,4.19
2019-01-30T09:29:03.552Z,4.36
2019-01-30T09:31:33.792Z,4.61
2019-01-30T09:34:04.474Z,4.78
2019-01-30T09:36:34.990Z,4.68
2019-01-30T09:39:09.065Z,4.79
2019-01-30T09:41:39.617Z,4.88
2019-01-30T09:44:09.886Z,4.85
2019-01-30T09:46:40.384Z,5.05
2019-01-30T09:49:11.143Z,5.27
2019-01-30T09:51:42.339Z,5.42
2019-01-30T09:54:13.086Z,5.24
2019-01-30T09:56:44.008Z,5.21
2019-01-30T09:59:14.556Z,5.32
2019-01-30T10:01:44.751Z,5.30
2019-01-30T10:04:15.405Z,5.34
2019-01-30T10:06:47.063Z,5.34
2019-01-30T10:09:17.375Z,5.38
2019-01-30T10:11:47.913Z,5.07
2019-01-30T10:14:18.186Z,4.75
2019-01-30T10:16:48.779Z,4.57
2019-01-30T10:19:19.405Z,4.58
2019-01-30T10:21:50.027Z,4.59
2019-01-30T10:24:20.970Z,4.72
2019-01-30T10:26:51.194Z,5.37
2019-01-30T10:29:21.534Z,5.36
2019-01-30T10:31:53.299Z,4.82
2019-01-30T10:34:24.642Z,4.46
2019-01-30T10:36:55.267Z,4.30
2019-01-30T10:39:25.914Z,4.19
2019-01-30T10:41:56.205Z,4.53
2019-01-30T10:44:26.498Z,4.88
2019-01-30T10:46:57.076Z,4.90
2019-01-30T10:49:27.339Z,4.87
2019-01-30T10:51:58.237Z,4.82
2019-01-30T10:54:28.861Z,5.08
2019-01-30T10:56:59.504Z,4.89
2019-01-30T10:59:29.770Z,4.92
2019-01-30T11:02:00.027Z,5.30
2019-01-30T11:04:30.325Z,5.31
2019-01-30T11:07:00.838Z,5.35
2019-01-30T11:09:31.476Z,5.37
2019-01-30T11:12:02.388Z,5.63
2019-01-30T11:14:32.636Z,5.38
2019-01-30T11:17:03.286Z,5.28
2019-01-30T11:19:33.478Z,5.32
2019-01-30T11:22:08.049Z,5.58
2019-01-30T11:24:38.329Z,5.44
2019-01-30T11:27:08.650Z,5.66
2019-01-30T11:29:38.912Z,6.25
2019-01-30T11:32:09.160Z,7.30
2019-01-30T11:34:39.417Z,7.05
2019-01-30T11:37:15.185Z,7.07
2019-01-30T11:39:48.475Z,8.06
2019-01-30T11:42:19.166Z,8.71
2019-01-30T11:44:49.453Z,8.54
2019-01-30T11:47:19.731Z,8.89
2019-01-30T11:49:50.012Z,7.67
2019-01-30T11:52:20.960Z,8.53
2019-01-30T11:54:51.740Z,7.59
2019-01-30T11:57:22.341Z,7.07
2019-01-30T11:59:52.941Z,7.52
2019-01-30T12:02:23.611Z,7.89
2019-01-30T12:04:54.151Z,6.80
2019-01-30T12:07:25.075Z,6.13
2019-01-30T12:09:55.930Z,6.05
2019-01-30T12:12:26.509Z,7.00
2019-01-30T12:14:56.705Z,8.08
2019-01-30T12:17:27.356Z,9.83
2019-01-30T12:19:58.018Z,8.50
2019-01-30T12:22:28.666Z,7.88
2019-01-30T12:24:59.525Z,7.69
2019-01-30T12:27:30.187Z,6.31
2019-01-30T12:30:01.055Z,6.04
2019-01-30T12:32:32.770Z,7.00
2019-01-30T12:35:03.021Z,9.23
2019-01-30T12:37:33.685Z,11.16
2019-01-30T12:40:05.032Z,12.03
2019-01-30T12:42:35.626Z,12.33
2019-01-30T12:45:07.814Z,10.61
2019-01-30T12:47:38.107Z,10.09
2019-01-30T12:50:08.964Z,10.61
2019-01-30T12:52:39.536Z,10.29
2019-01-30T12:55:30.478Z,11.02
2019-01-30T12:58:01.332Z,11.21
2019-01-30T13:00:53.356Z,10.49
2019-01-30T13:03:23.621Z,7.95
2019-01-30T13:05:53.814Z,7.90
2019-01-30T13:08:24.401Z,10.51
2019-01-30T13:10:55.260Z,12.10
2019-01-30T13:13:25.850Z,12.18
2019-01-30T13:15:56.188Z,10.68
2019-01-30T13:18:26.704Z,8.55
2019-01-30T13:20:57.409Z,8.62
2019-01-30T13:23:27.994Z,10.29
2019-01-30T13:25:58.694Z,11.51
2019-01-30T13:28:28.913Z,12.29
2019-01-30T13:30:59.195Z,12.66
2019-01-30T13:33:29.817Z,12.51
2019-01-30T13:36:00.058Z,11.60
2019-01-30T13:38:30.666Z,11.49
2019-01-30T13:41:01.339Z,13.34
2019-01-30T13:43:31.867Z,13.34
2019-01-30T13:46:05.393Z,12.71
2019-01-30T13:48:35.508Z,11.36
2019-01-30T13:51:05.835Z,9.92
2019-01-30T13:53:37.260Z,11.78
2019-01-30T13:56:07.737Z,13.15
2019-01-30T13:58:38.348Z,14.55
2019-01-30T14:01:17.232Z,14.55
2019-01-30T14:03:42.742Z,15.15
2019-01-30T14:06:13.405Z,15.33
2019-01-30T14:08:43.761Z,16.59
2019-01-30T14:11:14.041Z,15.98
2019-01-30T14:13:44.310Z,14.01
2019-01-30T14:16:14.692Z,10.85
2019-01-30T14:18:45.558Z,10.85
2019-01-30T14:21:16.339Z,12.06
2019-01-30T14:23:46.926Z,9.10
2019-01-30T14:26:19.114Z,9.10
2019-01-30T14:28:50.412Z,12.14
2019-01-30T14:31:20.620Z,13.55
2019-01-30T14:33:50.866Z,13.22
2019-01-30T14:36:21.171Z,14.51
2019-01-30T14:38:51.810Z,10.70
2019-01-30T14:41:39.901Z,7.74
2019-01-30T14:44:11.028Z,7.87
2019-01-30T14:46:41.573Z,7.53
2019-01-30T14:49:12.182Z,8.87
2019-01-30T14:51:42.515Z,11.37
2019-01-30T14:54:13.691Z,12.41
2019-01-30T14:56:44.242Z,14.03
2019-01-30T14:59:15.937Z,13.34
2019-01-30T15:01:47.993Z,13.26
2019-01-30T15:04:18.199Z,13.26
2019-01-30T15:06:48.585Z,13.15
2019-01-30T15:09:19.408Z,13.47
2019-01-30T15:11:50.071Z,12.56
2019-01-30T15:14:20.219Z,11.27
2019-01-30T15:16:50.751Z,11.22
2019-01-30T15:19:20.978Z,10.71
2019-01-30T15:21:51.939Z,11.60
2019-01-30T15:24:22.102Z,9.25
2019-01-30T15:26:53.930Z,6.67
2019-01-30T15:29:24.238Z,5.71
2019-01-30T15:31:54.968Z,5.31
2019-01-30T15:34:25.915Z,5.11
2019-01-30T15:36:56.509Z,5.17
2019-01-30T15:39:26.936Z,5.12
2019-01-30T15:41:57.178Z,5.09
2019-01-30T15:44:27.928Z,5.11
2019-01-30T15:46:58.461Z,4.92
2019-01-30T15:49:29.155Z,4.76
2019-01-30T15:52:00.399Z,4.56
2019-01-30T15:54:31.070Z,4.45
2019-01-30T15:57:01.746Z,4.26
2019-01-30T15:59:32.273Z,4.10
2019-01-30T16:02:02.762Z,4.00
2019-01-30T16:04:33.005Z,3.83
2019-01-30T16:07:03.990Z,3.69
2019-01-30T16:09:35.159Z,3.56
2019-01-30T16:12:05.805Z,3.44
2019-01-30T16:14:36.038Z,3.35
2019-01-30T16:17:08.221Z,3.26
2019-01-30T16:19:39.151Z,3.08
2019-01-30T16:22:12.013Z,3.00
2019-01-30T16:24:44.910Z,2.89
2019-01-30T16:27:16.423Z,2.91
2019-01-30T16:29:47.354Z,2.82
2019-01-30T16:32:19.153Z,2.67
2019-01-30T16:34:50.016Z,2.63
2019-01-30T16:37:20.366Z,2.69
2019-01-30T16:39:50.876Z,2.66
2019-01-30T16:42:21.294Z,2.43
2019-01-30T16:44:52.413Z,2.27
2019-01-30T16:47:22.928Z,2.10
2019-01-30T16:49:53.558Z,2.00
2019-01-30T16:52:24.883Z,1.90
2019-01-30T16:54:55.728Z,1.99
2019-01-30T16:57:25.943Z,1.88
2019-01-30T16:59:58.260Z,1.76
2019-01-30T17:02:29.777Z,1.79
2019-01-30T17:05:02.099Z,1.86
2019-01-30T17:07:32.620Z,1.92
2019-01-30T17:10:04.798Z,2.03
2019-01-30T17:12:37.345Z,2.30
2019-01-30T17:15:13.257Z,2.46
2019-01-30T17:17:44.037Z,2.60
2019-01-30T17:20:28.650Z,2.60
2019-01-30T17:23:00.340Z,2.64
2019-01-30T17:25:31.281Z,2.60
2019-01-30T17:28:01.935Z,2.63
2019-01-30T17:30:41.362Z,2.67
2019-01-30T17:33:12.018Z,2.75
2019-01-30T17:35:43.338Z,2.74
2019-01-30T17:38:14.005Z,2.74
2019-01-30T17:41:06.590Z,2.77
2019-01-30T17:43:38.058Z,2.70
2019-01-30T17:46:08.879Z,2.51
2019-01-30T17:48:39.968Z,2.51
2019-01-30T17:51:31.689Z,2.45
2019-01-30T17:54:02.884Z,2.44
2019-01-30T17:56:35.569Z,2.48
2019-01-30T17:59:06.168Z,2.59
2019-01-30T18:01:38.195Z,2.58
2019-01-30T18:04:09.444Z,2.64
2019-01-30T18:06:40.906Z,2.58
2019-01-30T18:09:12.368Z,2.58
2019-01-30T18:11:43.319Z,2.55
2019-01-30T18:14:15.176Z,2.61
2019-01-30T18:16:47.107Z,2.59
2019-01-30T18:19:20.838Z,2.61
2019-01-30T18:21:53.234Z,2.63
2019-01-30T18:24:26.388Z,2.61
2019-01-30T18:27:00.085Z,2.55
2019-01-30T18:29:33.119Z,2.48
2019-01-30T18:32:09.099Z,2.50
2019-01-30T18:34:43.158Z,2.55
2019-01-30T18:37:16.740Z,2.50
2019-01-30T18:39:49.818Z,2.49
2019-01-30T18:42:22.846Z,2.54
2019-01-30T18:44:56.261Z,2.48
2019-01-30T18:47:28.798Z,2.47
2019-01-30T18:50:01.647Z,2.61
2019-01-30T18:52:34.066Z,2.48
2019-01-30T18:55:08.487Z,2.28
2019-01-30T18:58:01.763Z,2.04
2019-01-30T19:00:39.314Z,1.83
2019-01-30T19:03:13.503Z,1.65
2019-01-30T19:05:44.879Z,1.47
2019-01-30T19:08:18.643Z,1.47
2019-01-30T19:10:52.588Z,1.51
2019-01-30T19:13:25.794Z,1.49
2019-01-30T19:16:18.146Z,1.45
2019-01-30T19:18:52.027Z,1.48
2019-01-30T19:21:25.235Z,1.51
2019-01-30T19:23:59.093Z,1.48
2019-01-30T19:26:32.614Z,1.29
2019-01-30T19:29:06.340Z,1.13
2019-01-30T19:31:39.489Z,0.96
2019-01-30T19:34:14.406Z,0.97
2019-01-30T19:36:48.217Z,0.99
2019-01-30T19:39:22.945Z,1.04
2019-01-30T19:41:57.821Z,0.99
2019-01-30T19:44:50.850Z,0.90
2019-01-30T19:47:26.223Z,0.96
2019-01-30T19:50:00.542Z,0.81
2019-01-30T19:52:35.552Z,0.54
2019-01-30T19:55:11.490Z,0.35
2019-01-30T19:57:46.903Z,0.16
2019-01-30T20:00:32.186Z,0.07
2019-01-30T20:03:07.522Z,-0.07
2019-01-30T20:05:41.664Z,-0.17
2019-01-30T20:08:15.946Z,-0.29
2019-01-30T20:10:50.741Z,-0.38
2019-01-30T20:13:24.400Z,-0.45
2019-01-30T20:15:58.319Z,-0.43
2019-01-30T20:18:34.591Z,-0.52
2019-01-30T20:21:08.836Z,-0.59
2019-01-30T20:24:01.754Z,-0.64
2019-01-30T20:26:35.486Z,-0.62
2019-01-30T20:29:08.608Z,-0.79
2019-01-30T20:32:01.034Z,-0.91
2019-01-30T20:34:35.264Z,-0.97
2019-01-30T20:37:28.298Z,-1.04
2019-01-30T20:40:03.243Z,-1.06
2019-01-30T20:42:37.745Z,-0.99
2019-01-30T20:45:16.321Z,-0.91
2019-01-30T20:47:50.028Z,-0.82
2019-01-30T20:50:26.010Z,-0.70
2019-01-30T20:52:59.841Z,-0.65
2019-01-30T20:55:33.132Z,-0.47
2019-01-30T20:58:07.381Z,-0.35
2019-01-30T21:00:46.398Z,-0.16
2019-01-30T21:03:20.668Z,-0.09
2019-01-30T21:05:55.099Z,-0.02
2019-01-30T21:08:28.406Z,0.26
2019-01-30T21:11:02.087Z,0.53
2019-01-30T21:13:35.381Z,0.72
2019-01-30T21:16:08.834Z,0.86
2019-01-30T21:18:41.343Z,1.06
2019-01-30T21:21:14.694Z,1.16
2019-01-30T21:23:47.715Z,1.27
2019-01-30T21:26:20.668Z,1.34
2019-01-30T21:28:53.127Z,1.44
2019-01-30T21:31:44.819Z,1.56
2019-01-30T21:34:17.289Z,1.76
2019-01-30T21:36:50.183Z,1.82
2019-01-30T21:39:24.073Z,1.93
2019-01-30T21:41:57.589Z,1.89
2019-01-30T21:44:30.770Z,1.78
2019-01-30T21:47:03.453Z,1.74
2019-01-30T21:49:35.350Z,1.67
2019-01-30T21:52:26.769Z,1.46
2019-01-30T21:54:58.301Z,1.30
2019-01-30T21:57:30.815Z,1.09
2019-01-30T22:00:02.317Z,0.88
2019-01-30T22:02:34.689Z,0.85
2019-01-30T22:05:07.372Z,0.78
2019-01-30T22:07:37.995Z,0.62
2019-01-30T22:10:11.097Z,0.40
2019-01-30T22:12:41.718Z,0.22
2019-01-30T22:15:13.147Z,0.22
2019-01-30T22:17:43.428Z,0.12
2019-01-30T22:20:16.026Z,0.01
2019-01-30T22:22:47.575Z,-0.07
2019-01-30T22:25:20.664Z,-0.09
2019-01-30T22:27:51.419Z,-0.17
2019-01-30T22:30:23.660Z,-0.15
2019-01-30T22:32:54.182Z,-0.07
2019-01-30T22:35:24.814Z,-0.03
2019-01-30T22:37:55.336Z,0.03
2019-01-30T22:40:26.101Z,0.04
2019-01-30T22:42:56.295Z,-0.10
2019-01-30T22:45:28.022Z,-0.25
2019-01-30T22:47:58.195Z,-0.45
2019-01-30T22:50:28.881Z,-0.52
2019-01-30T22:52:59.132Z,-0.58
2019-01-30T22:55:30.663Z,-0.67
2019-01-30T22:58:01.253Z,-0.82
2019-01-30T23:01:31.359Z,-0.96
2019-01-30T23:04:22.837Z,-0.97
2019-01-30T23:07:37.707Z,-0.91
2019-01-30T23:10:54.008Z,-0.89
2019-01-30T23:14:08.084Z,-0.82
2019-01-30T23:17:22.138Z,-0.75
2019-01-30T23:20:22.770Z,-0.77
2019-01-30T23:23:37.200Z,-0.82
2019-01-30T23:26:23.973Z,-0.57
2019-01-30T23:29:35.496Z,-0.47
2019-01-30T23:32:31.777Z,-0.35
2019-01-30T23:35:31.879Z,-0.15
2019-01-30T23:38:45.334Z,0.11
2019-01-30T23:41:41.527Z,0.10
2019-01-30T23:44:32.763Z,0.27
2019-01-30T23:47:51.753Z,0.41
2019-01-30T23:50:51.641Z,0.55
2019-01-30T23:54:03.454Z,0.70
2019-01-30T23:56:50.994Z,0.77
